sensor_id;sensor_type;location;lat;lon;timestamp;P1;durP1;ratioP1;P2;durP2;ratioP2
59530;SDS011;45349;48.692;8.186;2022-08-19T00:00:28;15.40;;;13.33;;
59530;SDS011;45349;48.692;8.186;2022-08-19T00:02:55;16.80;;;14.10;;
59530;SDS011;45349;48.692;8.186;2022-08-19T00:05:22;17.20;;;14.50;;
59530;SDS011;45349;48.692;8.186;2022-08-19T00:07:50;17.40;;;14.30;;
59530;SDS011;45349;48.692;8.186;2022-08-19T00:10:17;15.43;;;13.83;;
59530;SDS011;45349;48.692;8.186;2022-08-19T00:12:45;16.23;;;13.87;;
59530;SDS011;45349;48.692;8.186;2022-08-19T00:15:13;16.83;;;15.07;;
59530;SDS011;45349;48.692;8.186;2022-08-19T00:17:43;18.80;;;15.13;;
59530;SDS011;45349;48.692;8.186;2022-08-19T00:20:11;18.70;;;14.43;;
59530;SDS011;45349;48.692;8.186;2022-08-19T00:23:02;16.63;;;14.07;;
59530;SDS011;45349;48.692;8.186;2022-08-19T00:25:29;18.27;;;15.47;;
59530;SDS011;45349;48.692;8.186;2022-08-19T00:27:56;16.83;;;14.27;;
59530;SDS011;45349;48.692;8.186;2022-08-19T00:30:23;20.87;;;15.10;;
59530;SDS011;45349;48.692;8.186;2022-08-19T00:32:50;20.63;;;14.50;;
59530;SDS011;45349;48.692;8.186;2022-08-19T00:35:19;19.57;;;14.63;;
59530;SDS011;45349;48.692;8.186;2022-08-19T00:37:46;18.97;;;15.70;;
59530;SDS011;45349;48.692;8.186;2022-08-19T00:40:15;18.80;;;15.23;;
59530;SDS011;45349;48.692;8.186;2022-08-19T00:42:45;17.90;;;16.00;;
59530;SDS011;45349;48.692;8.186;2022-08-19T00:45:14;21.20;;;15.23;;
59530;SDS011;45349;48.692;8.186;2022-08-19T00:47:42;18.13;;;14.67;;
59530;SDS011;45349;48.692;8.186;2022-08-19T00:50:11;18.83;;;15.10;;
59530;SDS011;45349;48.692;8.186;2022-08-19T00:52:41;17.70;;;14.37;;
59530;SDS011;45349;48.692;8.186;2022-08-19T00:55:12;17.90;;;15.60;;
59530;SDS011;45349;48.692;8.186;2022-08-19T00:57:44;17.07;;;14.77;;
59530;SDS011;45349;48.692;8.186;2022-08-19T01:00:14;17.50;;;15.13;;
59530;SDS011;45349;48.692;8.186;2022-08-19T01:02:45;18.00;;;15.30;;
59530;SDS011;45349;48.692;8.186;2022-08-19T01:05:13;16.97;;;15.13;;
59530;SDS011;45349;48.692;8.186;2022-08-19T01:07:43;17.00;;;14.97;;
59530;SDS011;45349;48.692;8.186;2022-08-19T01:10:11;19.77;;;15.93;;
59530;SDS011;45349;48.692;8.186;2022-08-19T01:12:41;22.70;;;16.37;;
59530;SDS011;45349;48.692;8.186;2022-08-19T01:15:09;17.87;;;16.00;;
59530;SDS011;45349;48.692;8.186;2022-08-19T01:17:40;16.67;;;14.53;;
59530;SDS011;45349;48.692;8.186;2022-08-19T01:20:09;17.77;;;15.20;;
59530;SDS011;45349;48.692;8.186;2022-08-19T01:22:39;16.07;;;14.37;;
59530;SDS011;45349;48.692;8.186;2022-08-19T01:25:09;16.13;;;14.53;;
59530;SDS011;45349;48.692;8.186;2022-08-19T01:27:37;18.90;;;15.37;;
59530;SDS011;45349;48.692;8.186;2022-08-19T01:30:05;19.60;;;15.70;;
59530;SDS011;45349;48.692;8.186;2022-08-19T01:32:33;17.73;;;14.23;;
59530;SDS011;45349;48.692;8.186;2022-08-19T01:35:00;18.93;;;15.07;;
59530;SDS011;45349;48.692;8.186;2022-08-19T01:37:28;17.60;;;15.80;;
59530;SDS011;45349;48.692;8.186;2022-08-19T01:39:57;18.83;;;15.27;;
59530;SDS011;45349;48.692;8.186;2022-08-19T01:42:24;17.37;;;14.73;;
59530;SDS011;45349;48.692;8.186;2022-08-19T01:44:51;16.90;;;15.20;;
59530;SDS011;45349;48.692;8.186;2022-08-19T01:47:17;17.73;;;14.77;;
59530;SDS011;45349;48.692;8.186;2022-08-19T01:49:44;16.10;;;14.40;;
59530;SDS011;45349;48.692;8.186;2022-08-19T01:52:11;20.17;;;15.00;;
59530;SDS011;45349;48.692;8.186;2022-08-19T01:54:38;17.83;;;15.10;;
59530;SDS011;45349;48.692;8.186;2022-08-19T01:57:06;18.07;;;15.03;;
59530;SDS011;45349;48.692;8.186;2022-08-19T01:59:37;17.00;;;14.93;;
59530;SDS011;45349;48.692;8.186;2022-08-19T02:02:05;20.27;;;16.30;;
59530;SDS011;45349;48.692;8.186;2022-08-19T02:04:33;17.80;;;15.17;;
59530;SDS011;45349;48.692;8.186;2022-08-19T02:07:00;20.03;;;15.20;;
59530;SDS011;45349;48.692;8.186;2022-08-19T02:09:27;18.90;;;15.63;;
59530;SDS011;45349;48.692;8.186;2022-08-19T02:11:54;24.13;;;16.23;;
59530;SDS011;45349;48.692;8.186;2022-08-19T02:14:22;17.67;;;15.77;;
59530;SDS011;45349;48.692;8.186;2022-08-19T02:16:49;18.80;;;16.07;;
59530;SDS011;45349;48.692;8.186;2022-08-19T02:19:15;18.17;;;15.93;;
59530;SDS011;45349;48.692;8.186;2022-08-19T02:21:42;16.77;;;14.97;;
59530;SDS011;45349;48.692;8.186;2022-08-19T02:24:09;17.63;;;15.60;;
59530;SDS011;45349;48.692;8.186;2022-08-19T02:26:37;20.23;;;15.33;;
59530;SDS011;45349;48.692;8.186;2022-08-19T02:29:04;17.30;;;15.30;;
59530;SDS011;45349;48.692;8.186;2022-08-19T02:31:32;18.50;;;16.17;;
59530;SDS011;45349;48.692;8.186;2022-08-19T02:33:58;23.87;;;17.27;;
59530;SDS011;45349;48.692;8.186;2022-08-19T02:36:25;18.57;;;14.90;;
59530;SDS011;45349;48.692;8.186;2022-08-19T02:38:53;18.60;;;15.63;;
59530;SDS011;45349;48.692;8.186;2022-08-19T02:41:20;18.03;;;16.13;;
59530;SDS011;45349;48.692;8.186;2022-08-19T02:43:49;19.00;;;16.40;;
59530;SDS011;45349;48.692;8.186;2022-08-19T02:46:17;20.47;;;16.50;;
59530;SDS011;45349;48.692;8.186;2022-08-19T02:48:48;16.87;;;15.00;;
59530;SDS011;45349;48.692;8.186;2022-08-19T02:51:16;19.40;;;16.37;;
59530;SDS011;45349;48.692;8.186;2022-08-19T02:53:44;20.43;;;16.13;;
59530;SDS011;45349;48.692;8.186;2022-08-19T02:56:11;21.20;;;15.63;;
59530;SDS011;45349;48.692;8.186;2022-08-19T02:58:38;17.83;;;15.93;;
59530;SDS011;45349;48.692;8.186;2022-08-19T03:01:04;20.47;;;16.10;;
59530;SDS011;45349;48.692;8.186;2022-08-19T03:03:31;17.83;;;15.30;;
59530;SDS011;45349;48.692;8.186;2022-08-19T03:06:07;16.67;;;14.97;;
59530;SDS011;45349;48.692;8.186;2022-08-19T03:08:36;17.33;;;15.53;;
59530;SDS011;45349;48.692;8.186;2022-08-19T03:11:04;17.53;;;14.73;;
59530;SDS011;45349;48.692;8.186;2022-08-19T03:13:31;17.47;;;15.37;;
59530;SDS011;45349;48.692;8.186;2022-08-19T03:15:58;18.97;;;16.67;;
59530;SDS011;45349;48.692;8.186;2022-08-19T03:18:24;20.63;;;17.07;;
59530;SDS011;45349;48.692;8.186;2022-08-19T03:20:52;23.33;;;18.87;;
59530;SDS011;45349;48.692;8.186;2022-08-19T03:23:21;23.23;;;17.93;;
59530;SDS011;45349;48.692;8.186;2022-08-19T03:25:50;23.93;;;18.17;;
59530;SDS011;45349;48.692;8.186;2022-08-19T03:28:19;22.83;;;19.33;;
59530;SDS011;45349;48.692;8.186;2022-08-19T03:30:56;22.13;;;18.07;;
59530;SDS011;45349;48.692;8.186;2022-08-19T03:33:25;21.97;;;17.87;;
59530;SDS011;45349;48.692;8.186;2022-08-19T03:36:02;22.60;;;18.87;;
59530;SDS011;45349;48.692;8.186;2022-08-19T03:38:34;22.40;;;18.97;;
59530;SDS011;45349;48.692;8.186;2022-08-19T03:41:03;22.33;;;18.93;;
59530;SDS011;45349;48.692;8.186;2022-08-19T03:43:33;24.77;;;20.03;;
59530;SDS011;45349;48.692;8.186;2022-08-19T03:46:02;24.37;;;19.50;;
59530;SDS011;45349;48.692;8.186;2022-08-19T03:48:30;22.77;;;20.13;;
59530;SDS011;45349;48.692;8.186;2022-08-19T03:50:57;25.67;;;20.47;;
59530;SDS011;45349;48.692;8.186;2022-08-19T03:53:25;25.30;;;18.47;;
59530;SDS011;45349;48.692;8.186;2022-08-19T03:55:54;24.30;;;19.03;;
59530;SDS011;45349;48.692;8.186;2022-08-19T03:58:23;20.90;;;16.97;;
59530;SDS011;45349;48.692;8.186;2022-08-19T04:00:49;20.57;;;17.10;;
59530;SDS011;45349;48.692;8.186;2022-08-19T04:03:16;22.80;;;18.97;;
59530;SDS011;45349;48.692;8.186;2022-08-19T04:05:44;21.07;;;17.73;;
59530;SDS011;45349;48.692;8.186;2022-08-19T04:08:12;24.50;;;17.60;;
59530;SDS011;45349;48.692;8.186;2022-08-19T04:10:46;21.83;;;17.03;;
59530;SDS011;45349;48.692;8.186;2022-08-19T04:13:16;20.60;;;16.83;;
59530;SDS011;45349;48.692;8.186;2022-08-19T04:15:44;22.90;;;17.47;;
59530;SDS011;45349;48.692;8.186;2022-08-19T04:18:12;19.47;;;16.77;;
59530;SDS011;45349;48.692;8.186;2022-08-19T04:20:42;21.70;;;18.97;;
59530;SDS011;45349;48.692;8.186;2022-08-19T04:23:10;26.57;;;20.20;;
59530;SDS011;45349;48.692;8.186;2022-08-19T04:25:38;23.53;;;19.33;;
59530;SDS011;45349;48.692;8.186;2022-08-19T04:28:06;27.40;;;20.70;;
59530;SDS011;45349;48.692;8.186;2022-08-19T04:30:39;26.80;;;21.47;;
59530;SDS011;45349;48.692;8.186;2022-08-19T04:33:07;26.33;;;20.73;;
59530;SDS011;45349;48.692;8.186;2022-08-19T04:35:35;22.77;;;19.20;;
59530;SDS011;45349;48.692;8.186;2022-08-19T04:38:03;21.70;;;18.40;;
59530;SDS011;45349;48.692;8.186;2022-08-19T04:40:31;25.40;;;20.23;;
59530;SDS011;45349;48.692;8.186;2022-08-19T04:43:30;21.60;;;17.70;;
59530;SDS011;45349;48.692;8.186;2022-08-19T04:45:59;24.00;;;18.70;;
59530;SDS011;45349;48.692;8.186;2022-08-19T04:48:31;21.20;;;19.00;;
59530;SDS011;45349;48.692;8.186;2022-08-19T04:50:58;20.80;;;18.20;;
59530;SDS011;45349;48.692;8.186;2022-08-19T04:53:25;18.87;;;16.83;;
59530;SDS011;45349;48.692;8.186;2022-08-19T04:55:53;17.17;;;15.37;;
59530;SDS011;45349;48.692;8.186;2022-08-19T04:58:21;18.70;;;16.27;;
59530;SDS011;45349;48.692;8.186;2022-08-19T05:00:48;19.83;;;16.00;;
59530;SDS011;45349;48.692;8.186;2022-08-19T05:03:17;21.33;;;16.63;;
59530;SDS011;45349;48.692;8.186;2022-08-19T05:05:44;21.10;;;15.60;;
59530;SDS011;45349;48.692;8.186;2022-08-19T05:08:14;23.03;;;18.90;;
59530;SDS011;45349;48.692;8.186;2022-08-19T05:10:45;21.47;;;18.10;;
59530;SDS011;45349;48.692;8.186;2022-08-19T05:13:12;20.20;;;16.73;;
59530;SDS011;45349;48.692;8.186;2022-08-19T05:15:40;28.07;;;21.80;;
59530;SDS011;45349;48.692;8.186;2022-08-19T05:18:07;24.00;;;18.37;;
59530;SDS011;45349;48.692;8.186;2022-08-19T05:20:53;24.07;;;17.67;;
59530;SDS011;45349;48.692;8.186;2022-08-19T05:23:38;23.60;;;20.10;;
59530;SDS011;45349;48.692;8.186;2022-08-19T05:26:06;26.87;;;22.03;;
59530;SDS011;45349;48.692;8.186;2022-08-19T05:28:34;23.97;;;18.90;;
59530;SDS011;45349;48.692;8.186;2022-08-19T05:31:01;26.43;;;20.63;;
59530;SDS011;45349;48.692;8.186;2022-08-19T05:33:28;25.60;;;22.07;;
59530;SDS011;45349;48.692;8.186;2022-08-19T05:35:56;27.90;;;22.03;;
59530;SDS011;45349;48.692;8.186;2022-08-19T05:38:23;29.50;;;23.70;;
59530;SDS011;45349;48.692;8.186;2022-08-19T05:40:52;27.43;;;22.53;;
59530;SDS011;45349;48.692;8.186;2022-08-19T05:43:19;28.00;;;22.67;;
59530;SDS011;45349;48.692;8.186;2022-08-19T05:45:45;24.57;;;20.33;;
59530;SDS011;45349;48.692;8.186;2022-08-19T05:48:12;27.07;;;21.93;;
59530;SDS011;45349;48.692;8.186;2022-08-19T05:50:40;28.07;;;21.17;;
59530;SDS011;45349;48.692;8.186;2022-08-19T05:53:09;22.40;;;18.87;;
59530;SDS011;45349;48.692;8.186;2022-08-19T05:55:35;26.37;;;20.27;;
59530;SDS011;45349;48.692;8.186;2022-08-19T05:58:04;31.50;;;24.70;;
59530;SDS011;45349;48.692;8.186;2022-08-19T06:00:32;30.97;;;23.50;;
59530;SDS011;45349;48.692;8.186;2022-08-19T06:02:59;31.57;;;23.60;;
59530;SDS011;45349;48.692;8.186;2022-08-19T06:05:28;29.73;;;23.80;;
59530;SDS011;45349;48.692;8.186;2022-08-19T06:07:55;27.97;;;23.03;;
59530;SDS011;45349;48.692;8.186;2022-08-19T06:10:23;29.67;;;24.33;;
59530;SDS011;45349;48.692;8.186;2022-08-19T06:12:51;28.97;;;22.43;;
59530;SDS011;45349;48.692;8.186;2022-08-19T06:15:18;29.73;;;24.40;;
59530;SDS011;45349;48.692;8.186;2022-08-19T06:17:45;27.17;;;21.60;;
59530;SDS011;45349;48.692;8.186;2022-08-19T06:20:13;38.10;;;23.90;;
59530;SDS011;45349;48.692;8.186;2022-08-19T06:22:43;27.90;;;20.87;;
59530;SDS011;45349;48.692;8.186;2022-08-19T06:25:12;31.17;;;22.87;;
59530;SDS011;45349;48.692;8.186;2022-08-19T06:27:41;33.97;;;23.80;;
59530;SDS011;45349;48.692;8.186;2022-08-19T06:30:09;27.20;;;22.37;;
59530;SDS011;45349;48.692;8.186;2022-08-19T06:32:37;28.33;;;21.77;;
59530;SDS011;45349;48.692;8.186;2022-08-19T06:35:04;32.43;;;23.97;;
59530;SDS011;45349;48.692;8.186;2022-08-19T06:37:32;24.00;;;19.57;;
59530;SDS011;45349;48.692;8.186;2022-08-19T06:39:58;29.87;;;20.50;;
59530;SDS011;45349;48.692;8.186;2022-08-19T06:42:25;31.07;;;20.30;;
59530;SDS011;45349;48.692;8.186;2022-08-19T06:44:53;26.67;;;20.80;;
59530;SDS011;45349;48.692;8.186;2022-08-19T06:47:20;28.17;;;21.37;;
59530;SDS011;45349;48.692;8.186;2022-08-19T06:49:48;27.17;;;20.87;;
59530;SDS011;45349;48.692;8.186;2022-08-19T06:52:14;24.17;;;19.63;;
59530;SDS011;45349;48.692;8.186;2022-08-19T06:54:41;26.83;;;21.10;;
59530;SDS011;45349;48.692;8.186;2022-08-19T06:57:09;26.03;;;21.40;;
59530;SDS011;45349;48.692;8.186;2022-08-19T06:59:40;28.93;;;22.23;;
59530;SDS011;45349;48.692;8.186;2022-08-19T07:02:08;27.00;;;22.03;;
59530;SDS011;45349;48.692;8.186;2022-08-19T07:04:35;27.57;;;21.53;;
59530;SDS011;45349;48.692;8.186;2022-08-19T07:07:04;30.00;;;23.00;;
59530;SDS011;45349;48.692;8.186;2022-08-19T07:09:33;28.47;;;22.50;;
59530;SDS011;45349;48.692;8.186;2022-08-19T07:12:02;29.70;;;22.53;;
59530;SDS011;45349;48.692;8.186;2022-08-19T07:14:30;26.47;;;21.70;;
59530;SDS011;45349;48.692;8.186;2022-08-19T07:16:57;24.97;;;21.07;;
59530;SDS011;45349;48.692;8.186;2022-08-19T07:19:26;27.87;;;21.20;;
59530;SDS011;45349;48.692;8.186;2022-08-19T07:21:55;27.67;;;21.73;;
59530;SDS011;45349;48.692;8.186;2022-08-19T07:24:22;29.07;;;22.20;;
59530;SDS011;45349;48.692;8.186;2022-08-19T07:26:51;27.20;;;22.50;;
59530;SDS011;45349;48.692;8.186;2022-08-19T07:29:20;28.30;;;21.03;;
59530;SDS011;45349;48.692;8.186;2022-08-19T07:31:48;26.60;;;21.27;;
59530;SDS011;45349;48.692;8.186;2022-08-19T07:34:16;26.53;;;21.70;;
59530;SDS011;45349;48.692;8.186;2022-08-19T07:36:45;27.20;;;21.53;;
59530;SDS011;45349;48.692;8.186;2022-08-19T07:39:13;26.40;;;20.60;;
59530;SDS011;45349;48.692;8.186;2022-08-19T07:41:41;24.13;;;19.70;;
59530;SDS011;45349;48.692;8.186;2022-08-19T07:44:09;28.63;;;23.27;;
59530;SDS011;45349;48.692;8.186;2022-08-19T07:46:39;27.03;;;22.00;;
59530;SDS011;45349;48.692;8.186;2022-08-19T07:49:10;24.70;;;20.30;;
59530;SDS011;45349;48.692;8.186;2022-08-19T07:51:42;28.60;;;20.37;;
59530;SDS011;45349;48.692;8.186;2022-08-19T07:54:11;28.60;;;21.67;;
59530;SDS011;45349;48.692;8.186;2022-08-19T07:56:38;28.37;;;22.67;;
59530;SDS011;45349;48.692;8.186;2022-08-19T07:59:05;31.37;;;23.00;;
59530;SDS011;45349;48.692;8.186;2022-08-19T08:01:33;30.77;;;24.10;;
59530;SDS011;45349;48.692;8.186;2022-08-19T08:03:59;30.73;;;24.20;;
59530;SDS011;45349;48.692;8.186;2022-08-19T08:06:47;29.27;;;21.43;;
59530;SDS011;45349;48.692;8.186;2022-08-19T08:09:33;26.53;;;21.17;;
59530;SDS011;45349;48.692;8.186;2022-08-19T08:12:03;24.70;;;20.20;;
59530;SDS011;45349;48.692;8.186;2022-08-19T08:14:33;26.17;;;21.20;;
59530;SDS011;45349;48.692;8.186;2022-08-19T08:17:03;28.70;;;22.40;;
59530;SDS011;45349;48.692;8.186;2022-08-19T08:19:30;26.03;;;20.57;;
59530;SDS011;45349;48.692;8.186;2022-08-19T08:21:59;30.80;;;22.97;;
59530;SDS011;45349;48.692;8.186;2022-08-19T08:24:28;29.47;;;22.27;;
59530;SDS011;45349;48.692;8.186;2022-08-19T08:26:57;27.37;;;21.37;;
59530;SDS011;45349;48.692;8.186;2022-08-19T08:29:24;25.67;;;20.70;;
59530;SDS011;45349;48.692;8.186;2022-08-19T08:31:52;25.70;;;20.87;;
59530;SDS011;45349;48.692;8.186;2022-08-19T08:34:19;24.40;;;20.73;;
59530;SDS011;45349;48.692;8.186;2022-08-19T08:36:46;22.80;;;19.43;;
59530;SDS011;45349;48.692;8.186;2022-08-19T08:39:15;25.67;;;19.17;;
59530;SDS011;45349;48.692;8.186;2022-08-19T08:41:47;24.83;;;21.63;;
59530;SDS011;45349;48.692;8.186;2022-08-19T08:44:20;24.90;;;19.83;;
59530;SDS011;45349;48.692;8.186;2022-08-19T08:46:49;22.10;;;19.13;;
59530;SDS011;45349;48.692;8.186;2022-08-19T08:49:23;21.90;;;18.67;;
59530;SDS011;45349;48.692;8.186;2022-08-19T08:51:59;21.73;;;18.83;;
59530;SDS011;45349;48.692;8.186;2022-08-19T08:54:32;21.10;;;18.83;;
59530;SDS011;45349;48.692;8.186;2022-08-19T08:57:03;21.77;;;18.93;;
59530;SDS011;45349;48.692;8.186;2022-08-19T08:59:34;20.90;;;18.27;;
59530;SDS011;45349;48.692;8.186;2022-08-19T09:02:04;23.27;;;19.87;;
59530;SDS011;45349;48.692;8.186;2022-08-19T09:04:31;23.20;;;18.63;;
59530;SDS011;45349;48.692;8.186;2022-08-19T09:07:03;23.03;;;19.63;;
59530;SDS011;45349;48.692;8.186;2022-08-19T09:09:45;20.70;;;18.57;;
59530;SDS011;45349;48.692;8.186;2022-08-19T09:12:14;24.23;;;18.40;;
59530;SDS011;45349;48.692;8.186;2022-08-19T09:14:50;21.47;;;19.03;;
59530;SDS011;45349;48.692;8.186;2022-08-19T09:17:20;22.23;;;17.90;;
59530;SDS011;45349;48.692;8.186;2022-08-19T09:19:56;23.83;;;18.50;;
59530;SDS011;45349;48.692;8.186;2022-08-19T09:22:27;26.97;;;19.50;;
59530;SDS011;45349;48.692;8.186;2022-08-19T09:24:56;22.50;;;18.57;;
59530;SDS011;45349;48.692;8.186;2022-08-19T09:27:41;19.33;;;17.23;;
59530;SDS011;45349;48.692;8.186;2022-08-19T09:30:10;21.03;;;17.07;;
59530;SDS011;45349;48.692;8.186;2022-08-19T09:32:40;21.57;;;18.80;;
59530;SDS011;45349;48.692;8.186;2022-08-19T09:35:08;20.37;;;18.17;;
59530;SDS011;45349;48.692;8.186;2022-08-19T09:37:35;22.47;;;16.13;;
59530;SDS011;45349;48.692;8.186;2022-08-19T09:40:04;21.80;;;18.43;;
59530;SDS011;45349;48.692;8.186;2022-08-19T09:42:32;20.80;;;17.73;;
59530;SDS011;45349;48.692;8.186;2022-08-19T09:44:59;20.60;;;16.30;;
59530;SDS011;45349;48.692;8.186;2022-08-19T09:47:25;20.53;;;17.73;;
59530;SDS011;45349;48.692;8.186;2022-08-19T09:49:52;19.07;;;17.00;;
59530;SDS011;45349;48.692;8.186;2022-08-19T09:52:20;24.87;;;18.50;;
59530;SDS011;45349;48.692;8.186;2022-08-19T09:54:47;23.03;;;20.07;;
59530;SDS011;45349;48.692;8.186;2022-08-19T09:57:14;20.20;;;17.27;;
59530;SDS011;45349;48.692;8.186;2022-08-19T09:59:43;22.60;;;18.83;;
59530;SDS011;45349;48.692;8.186;2022-08-19T10:02:10;21.00;;;17.67;;
59530;SDS011;45349;48.692;8.186;2022-08-19T10:04:37;23.20;;;18.13;;
59530;SDS011;45349;48.692;8.186;2022-08-19T10:07:20;19.13;;;16.40;;
59530;SDS011;45349;48.692;8.186;2022-08-19T10:09:47;18.23;;;15.73;;
59530;SDS011;45349;48.692;8.186;2022-08-19T10:12:15;22.33;;;19.93;;
59530;SDS011;45349;48.692;8.186;2022-08-19T10:14:42;25.13;;;19.47;;
59530;SDS011;45349;48.692;8.186;2022-08-19T10:17:09;19.77;;;17.67;;
59530;SDS011;45349;48.692;8.186;2022-08-19T10:19:36;21.90;;;19.03;;
59530;SDS011;45349;48.692;8.186;2022-08-19T10:22:04;23.67;;;19.53;;
59530;SDS011;45349;48.692;8.186;2022-08-19T10:24:32;24.77;;;18.20;;
59530;SDS011;45349;48.692;8.186;2022-08-19T10:27:00;19.37;;;17.27;;
59530;SDS011;45349;48.692;8.186;2022-08-19T10:29:30;18.67;;;16.70;;
59530;SDS011;45349;48.692;8.186;2022-08-19T10:31:59;17.40;;;15.50;;
59530;SDS011;45349;48.692;8.186;2022-08-19T10:34:27;17.30;;;15.33;;
59530;SDS011;45349;48.692;8.186;2022-08-19T10:36:55;18.10;;;13.97;;
59530;SDS011;45349;48.692;8.186;2022-08-19T10:39:23;20.00;;;16.10;;
59530;SDS011;45349;48.692;8.186;2022-08-19T10:41:50;15.63;;;13.73;;
59530;SDS011;45349;48.692;8.186;2022-08-19T10:44:16;19.60;;;15.03;;
59530;SDS011;45349;48.692;8.186;2022-08-19T10:46:44;16.00;;;13.97;;
59530;SDS011;45349;48.692;8.186;2022-08-19T10:49:12;17.92;;;15.95;;
59530;SDS011;45349;48.692;8.186;2022-08-19T10:51:39;15.30;;;13.27;;
59530;SDS011;45349;48.692;8.186;2022-08-19T10:54:24;15.70;;;12.27;;
59530;SDS011;45349;48.692;8.186;2022-08-19T10:57:12;14.80;;;12.03;;
59530;SDS011;45349;48.692;8.186;2022-08-19T10:59:38;14.57;;;12.40;;
59530;SDS011;45349;48.692;8.186;2022-08-19T11:02:07;14.13;;;12.73;;
59530;SDS011;45349;48.692;8.186;2022-08-19T11:04:37;12.87;;;11.47;;
59530;SDS011;45349;48.692;8.186;2022-08-19T11:07:05;11.90;;;10.33;;
59530;SDS011;45349;48.692;8.186;2022-08-19T11:09:36;13.63;;;11.60;;
59530;SDS011;45349;48.692;8.186;2022-08-19T11:12:05;11.20;;;9.50;;
59530;SDS011;45349;48.692;8.186;2022-08-19T11:14:34;92.20;;;33.77;;
59530;SDS011;45349;48.692;8.186;2022-08-19T11:17:01;16.50;;;10.57;;
59530;SDS011;45349;48.692;8.186;2022-08-19T11:19:29;19.30;;;11.57;;
59530;SDS011;45349;48.692;8.186;2022-08-19T11:21:56;14.13;;;10.93;;
59530;SDS011;45349;48.692;8.186;2022-08-19T11:24:28;12.70;;;11.17;;
59530;SDS011;45349;48.692;8.186;2022-08-19T11:26:59;13.20;;;11.80;;
59530;SDS011;45349;48.692;8.186;2022-08-19T11:29:29;13.47;;;11.87;;
59530;SDS011;45349;48.692;8.186;2022-08-19T11:31:57;12.83;;;10.50;;
59530;SDS011;45349;48.692;8.186;2022-08-19T11:34:26;11.87;;;10.77;;
59530;SDS011;45349;48.692;8.186;2022-08-19T11:36:55;12.40;;;11.10;;
59530;SDS011;45349;48.692;8.186;2022-08-19T11:39:24;10.73;;;9.30;;
59530;SDS011;45349;48.692;8.186;2022-08-19T11:41:52;13.03;;;11.73;;
59530;SDS011;45349;48.692;8.186;2022-08-19T11:44:19;11.80;;;10.60;;
59530;SDS011;45349;48.692;8.186;2022-08-19T11:46:46;12.67;;;11.23;;
59530;SDS011;45349;48.692;8.186;2022-08-19T11:49:12;11.70;;;10.33;;
59530;SDS011;45349;48.692;8.186;2022-08-19T11:51:40;12.60;;;10.27;;
59530;SDS011;45349;48.692;8.186;2022-08-19T11:54:09;12.70;;;11.03;;
59530;SDS011;45349;48.692;8.186;2022-08-19T11:56:37;14.80;;;10.20;;
59530;SDS011;45349;48.692;8.186;2022-08-19T11:59:04;14.17;;;11.70;;
59530;SDS011;45349;48.692;8.186;2022-08-19T12:01:31;12.10;;;10.93;;
59530;SDS011;45349;48.692;8.186;2022-08-19T12:03:58;14.07;;;11.30;;
59530;SDS011;45349;48.692;8.186;2022-08-19T12:06:26;16.13;;;11.47;;
59530;SDS011;45349;48.692;8.186;2022-08-19T12:08:55;13.43;;;12.17;;
59530;SDS011;45349;48.692;8.186;2022-08-19T12:11:24;14.03;;;12.63;;
59530;SDS011;45349;48.692;8.186;2022-08-19T12:14:10;14.00;;;12.47;;
59530;SDS011;45349;48.692;8.186;2022-08-19T12:16:39;13.70;;;11.80;;
59530;SDS011;45349;48.692;8.186;2022-08-19T12:19:06;17.80;;;12.83;;
59530;SDS011;45349;48.692;8.186;2022-08-19T12:21:34;13.73;;;10.87;;
59530;SDS011;45349;48.692;8.186;2022-08-19T12:24:02;14.70;;;13.10;;
59530;SDS011;45349;48.692;8.186;2022-08-19T12:26:52;13.93;;;12.47;;
59530;SDS011;45349;48.692;8.186;2022-08-19T12:29:20;16.20;;;11.60;;
59530;SDS011;45349;48.692;8.186;2022-08-19T12:31:55;16.13;;;13.77;;
59530;SDS011;45349;48.692;8.186;2022-08-19T12:34:25;15.20;;;13.70;;
59530;SDS011;45349;48.692;8.186;2022-08-19T12:36:54;15.27;;;12.40;;
59530;SDS011;45349;48.692;8.186;2022-08-19T12:39:21;13.17;;;11.53;;
59530;SDS011;45349;48.692;8.186;2022-08-19T12:41:48;12.27;;;10.03;;
59530;SDS011;45349;48.692;8.186;2022-08-19T12:44:16;12.00;;;10.80;;
59530;SDS011;45349;48.692;8.186;2022-08-19T12:46:43;11.97;;;10.07;;
59530;SDS011;45349;48.692;8.186;2022-08-19T12:49:10;11.43;;;9.67;;
59530;SDS011;45349;48.692;8.186;2022-08-19T12:51:37;10.07;;;9.17;;
59530;SDS011;45349;48.692;8.186;2022-08-19T12:54:04;12.27;;;11.00;;
59530;SDS011;45349;48.692;8.186;2022-08-19T12:56:31;12.17;;;9.40;;
59530;SDS011;45349;48.692;8.186;2022-08-19T12:59:00;10.63;;;9.73;;
59530;SDS011;45349;48.692;8.186;2022-08-19T13:01:29;14.60;;;10.40;;
59530;SDS011;45349;48.692;8.186;2022-08-19T13:03:58;13.20;;;10.20;;
59530;SDS011;45349;48.692;8.186;2022-08-19T13:06:25;13.37;;;11.23;;
59530;SDS011;45349;48.692;8.186;2022-08-19T13:08:52;11.57;;;10.47;;
59530;SDS011;45349;48.692;8.186;2022-08-19T13:11:20;12.13;;;10.63;;
59530;SDS011;45349;48.692;8.186;2022-08-19T13:13:49;12.37;;;10.33;;
59530;SDS011;45349;48.692;8.186;2022-08-19T13:16:17;10.67;;;9.67;;
59530;SDS011;45349;48.692;8.186;2022-08-19T13:18:46;10.93;;;9.90;;
59530;SDS011;45349;48.692;8.186;2022-08-19T13:21:14;11.37;;;10.17;;
59530;SDS011;45349;48.692;8.186;2022-08-19T13:23:41;11.33;;;9.47;;
59530;SDS011;45349;48.692;8.186;2022-08-19T13:26:09;10.50;;;9.50;;
59530;SDS011;45349;48.692;8.186;2022-08-19T13:28:36;10.53;;;9.43;;
59530;SDS011;45349;48.692;8.186;2022-08-19T13:31:22;14.13;;;10.13;;
59530;SDS011;45349;48.692;8.186;2022-08-19T13:34:09;10.23;;;7.97;;
59530;SDS011;45349;48.692;8.186;2022-08-19T13:36:36;9.80;;;8.40;;
59530;SDS011;45349;48.692;8.186;2022-08-19T13:39:05;13.03;;;9.33;;
59530;SDS011;45349;48.692;8.186;2022-08-19T13:41:33;9.73;;;8.73;;
59530;SDS011;45349;48.692;8.186;2022-08-19T13:44:01;10.27;;;9.17;;
59530;SDS011;45349;48.692;8.186;2022-08-19T13:46:28;10.20;;;9.20;;
59530;SDS011;45349;48.692;8.186;2022-08-19T13:48:55;12.20;;;8.63;;
59530;SDS011;45349;48.692;8.186;2022-08-19T13:51:24;9.40;;;7.97;;
59530;SDS011;45349;48.692;8.186;2022-08-19T13:53:51;11.63;;;10.10;;
59530;SDS011;45349;48.692;8.186;2022-08-19T13:56:18;9.67;;;8.67;;
59530;SDS011;45349;48.692;8.186;2022-08-19T13:58:45;10.70;;;9.20;;
59530;SDS011;45349;48.692;8.186;2022-08-19T14:01:12;9.40;;;8.40;;
59530;SDS011;45349;48.692;8.186;2022-08-19T14:03:46;8.13;;;7.23;;
59530;SDS011;45349;48.692;8.186;2022-08-19T14:06:12;8.13;;;7.33;;
59530;SDS011;45349;48.692;8.186;2022-08-19T14:08:40;8.27;;;7.50;;
59530;SDS011;45349;48.692;8.186;2022-08-19T14:11:08;8.27;;;7.50;;
59530;SDS011;45349;48.692;8.186;2022-08-19T14:13:35;8.57;;;7.67;;
59530;SDS011;45349;48.692;8.186;2022-08-19T14:16:05;7.63;;;6.53;;
59530;SDS011;45349;48.692;8.186;2022-08-19T14:18:33;10.63;;;8.17;;
59530;SDS011;45349;48.692;8.186;2022-08-19T14:21:00;12.00;;;7.03;;
59530;SDS011;45349;48.692;8.186;2022-08-19T14:23:28;9.47;;;7.57;;
59530;SDS011;45349;48.692;8.186;2022-08-19T14:26:03;7.03;;;6.40;;
59530;SDS011;45349;48.692;8.186;2022-08-19T14:28:31;6.90;;;6.30;;
59530;SDS011;45349;48.692;8.186;2022-08-19T14:30:58;7.23;;;6.53;;
59530;SDS011;45349;48.692;8.186;2022-08-19T14:33:25;6.90;;;6.22;;